sensor_id;sensor_type;location;lat;lon;timestamp;temperature;humidity
5280;DHT22;2663;53.588;10.010;2023-04-06T00:00:51;5.90;99.90
5280;DHT22;2663;53.588;10.010;2023-04-06T00:03:18;5.80;99.90
5280;DHT22;2663;53.588;10.010;2023-04-06T00:05:47;5.80;99.90
5280;DHT22;2663;53.588;10.010;2023-04-06T00:08:14;5.80;99.90
5280;DHT22;2663;53.588;10.010;2023-04-06T00:10:41;5.80;99.90
5280;DHT22;2663;53.588;10.010;2023-04-06T00:13:07;5.70;99.90
5280;DHT22;2663;53.588;10.010;2023-04-06T00:15:34;5.70;99.90
5280;DHT22;2663;53.588;10.010;2023-04-06T00:18:02;5.80;99.90
5280;DHT22;2663;53.588;10.010;2023-04-06T00:20:29;5.80;99.90
5280;DHT22;2663;53.588;10.010;2023-04-06T00:22:56;5.70;99.90
5280;DHT22;2663;53.588;10.010;2023-04-06T00:25:22;5.70;99.90
5280;DHT22;2663;53.588;10.010;2023-04-06T00:27:49;5.70;99.90
5280;DHT22;2663;53.588;10.010;2023-04-06T00:30:16;5.70;99.90
5280;DHT22;2663;53.588;10.010;2023-04-06T00:32:43;5.70;99.90
5280;DHT22;2663;53.588;10.010;2023-04-06T00:35:10;5.70;99.90
5280;DHT22;2663;53.588;10.010;2023-04-06T00:37:37;5.60;99.90
5280;DHT22;2663;53.588;10.010;2023-04-06T00:40:04;5.70;99.90
5280;DHT22;2663;53.588;10.010;2023-04-06T00:42:31;5.60;99.90
5280;DHT22;2663;53.588;10.010;2023-04-06T00:44:59;5.60;99.90
5280;DHT22;2663;53.588;10.010;2023-04-06T00:47:26;5.50;99.90
5280;DHT22;2663;53.588;10.010;2023-04-06T00:49:53;5.60;99.90
5280;DHT22;2663;53.588;10.010;2023-04-06T00:52:21;5.50;99.90
5280;DHT22;2663;53.588;10.010;2023-04-06T00:54:48;5.50;99.90
5280;DHT22;2663;53.588;10.010;2023-04-06T00:57:15;5.50;99.90
5280;DHT22;2663;53.588;10.010;2023-04-06T00:59:42;5.50;99.90
5280;DHT22;2663;53.588;10.010;2023-04-06T01:02:09;5.50;99.90
5280;DHT22;2663;53.588;10.010;2023-04-06T01:04:36;5.40;99.90
5280;DHT22;2663;53.588;10.010;2023-04-06T01:07:02;5.50;99.90
5280;DHT22;2663;53.588;10.010;2023-04-06T01:09:30;5.10;99.90
5280;DHT22;2663;53.588;10.010;2023-04-06T01:11:57;5.30;99.90
5280;DHT22;2663;53.588;10.010;2023-04-06T01:14:25;5.30;99.90
5280;DHT22;2663;53.588;10.010;2023-04-06T01:16:52;5.30;99.90
5280;DHT22;2663;53.588;10.010;2023-04-06T01:19:19;5.30;99.90
5280;DHT22;2663;53.588;10.010;2023-04-06T01:21:47;5.30;99.90
5280;DHT22;2663;53.588;10.010;2023-04-06T01:24:16;5.30;99.90
5280;DHT22;2663;53.588;10.010;2023-04-06T01:26:43;5.30;99.90
5280;DHT22;2663;53.588;10.010;2023-04-06T01:29:10;5.70;99.90
5280;DHT22;2663;53.588;10.010;2023-04-06T01:31:37;5.30;99.90
5280;DHT22;2663;53.588;10.010;2023-04-06T01:34:04;5.30;99.90
5280;DHT22;2663;53.588;10.010;2023-04-06T01:36:31;5.30;99.90
5280;DHT22;2663;53.588;10.010;2023-04-06T01:38:58;5.20;99.90
5280;DHT22;2663;53.588;10.010;2023-04-06T01:41:24;5.20;99.90
5280;DHT22;2663;53.588;10.010;2023-04-06T01:43:51;5.30;99.90
5280;DHT22;2663;53.588;10.010;2023-04-06T01:46:21;5.30;99.90
5280;DHT22;2663;53.588;10.010;2023-04-06T01:48:47;5.20;99.90
5280;DHT22;2663;53.588;10.010;2023-04-06T01:51:14;5.20;99.90
5280;DHT22;2663;53.588;10.010;2023-04-06T01:53:41;5.30;99.90
5280;DHT22;2663;53.588;10.010;2023-04-06T01:56:08;5.40;99.90
5280;DHT22;2663;53.588;10.010;2023-04-06T01:58:34;5.30;99.90
5280;DHT22;2663;53.588;10.010;2023-04-06T02:01:02;5.20;99.90
5280;DHT22;2663;53.588;10.010;2023-04-06T02:03:29;5.30;99.90
5280;DHT22;2663;53.588;10.010;2023-04-06T02:05:57;5.30;99.90
5280;DHT22;2663;53.588;10.010;2023-04-06T02:08:23;5.30;99.90
5280;DHT22;2663;53.588;10.010;2023-04-06T02:10:50;5.30;99.90
5280;DHT22;2663;53.588;10.010;2023-04-06T02:13:17;5.30;99.90
5280;DHT22;2663;53.588;10.010;2023-04-06T02:15:43;5.20;99.90
5280;DHT22;2663;53.588;10.010;2023-04-06T02:18:10;5.20;99.90
5280;DHT22;2663;53.588;10.010;2023-04-06T02:20:37;5.20;99.90
5280;DHT22;2663;53.588;10.010;2023-04-06T02:23:03;5.20;99.90
5280;DHT22;2663;53.588;10.010;2023-04-06T02:25:30;6.50;99.90
5280;DHT22;2663;53.588;10.010;2023-04-06T02:27:57;5.30;99.90
5280;DHT22;2663;53.588;10.010;2023-04-06T02:30:24;5.10;99.90
5280;DHT22;2663;53.588;10.010;2023-04-06T02:32:50;4.50;99.90
5280;DHT22;2663;53.588;10.010;2023-04-06T02:35:17;5.10;99.90
5280;DHT22;2663;53.588;10.010;2023-04-06T02:37:44;5.00;99.90
5280;DHT22;2663;53.588;10.010;2023-04-06T02:40:11;3.80;99.90
5280;DHT22;2663;53.588;10.010;2023-04-06T02:42:38;5.00;99.90
5280;DHT22;2663;53.588;10.010;2023-04-06T02:45:05;4.00;99.90
5280;DHT22;2663;53.588;10.010;2023-04-06T02:47:32;4.90;99.90
5280;DHT22;2663;53.588;10.010;2023-04-06T02:49:59;4.90;99.90
5280;DHT22;2663;53.588;10.010;2023-04-06T02:52:26;4.80;99.90
5280;DHT22;2663;53.588;10.010;2023-04-06T02:54:53;4.90;99.90
5280;DHT22;2663;53.588;10.010;2023-04-06T02:57:19;4.90;99.90
5280;DHT22;2663;53.588;10.010;2023-04-06T02:59:46;4.90;99.90
5280;DHT22;2663;53.588;10.010;2023-04-06T03:02:13;5.00;99.90
5280;DHT22;2663;53.588;10.010;2023-04-06T03:04:39;5.00;99.90
5280;DHT22;2663;53.588;10.010;2023-04-06T03:07:06;5.00;99.90
5280;DHT22;2663;53.588;10.010;2023-04-06T03:09:33;5.00;99.90
5280;DHT22;2663;53.588;10.010;2023-04-06T03:12:00;5.10;99.90
5280;DHT22;2663;53.588;10.010;2023-04-06T03:14:28;5.00;99.90
5280;DHT22;2663;53.588;10.010;2023-04-06T03:16:54;4.90;99.90
5280;DHT22;2663;53.588;10.010;2023-04-06T03:19:21;4.90;99.90
5280;DHT22;2663;53.588;10.010;2023-04-06T03:21:47;3.40;99.90
5280;DHT22;2663;53.588;10.010;2023-04-06T03:24:14;4.90;99.90
5280;DHT22;2663;53.588;10.010;2023-04-06T03:26:41;4.80;99.90
5280;DHT22;2663;53.588;10.010;2023-04-06T03:29:08;4.80;99.90
5280;DHT22;2663;53.588;10.010;2023-04-06T03:31:35;4.80;99.90
5280;DHT22;2663;53.588;10.010;2023-04-06T03:34:01;4.80;99.90
5280;DHT22;2663;53.588;10.010;2023-04-06T03:36:28;4.70;99.90
5280;DHT22;2663;53.588;10.010;2023-04-06T03:38:55;4.70;99.90
5280;DHT22;2663;53.588;10.010;2023-04-06T03:41:21;4.70;99.90
5280;DHT22;2663;53.588;10.010;2023-04-06T03:43:48;4.70;99.90
5280;DHT22;2663;53.588;10.010;2023-04-06T03:46:15;4.70;99.90
5280;DHT22;2663;53.588;10.010;2023-04-06T03:48:41;4.90;99.90
5280;DHT22;2663;53.588;10.010;2023-04-06T03:51:08;4.80;99.90
5280;DHT22;2663;53.588;10.010;2023-04-06T03:53:35;4.80;99.90
5280;DHT22;2663;53.588;10.010;2023-04-06T03:56:03;4.70;99.90
5280;DHT22;2663;53.588;10.010;2023-04-06T03:58:30;4.70;99.90
5280;DHT22;2663;53.588;10.010;2023-04-06T04:00:57;4.70;99.90
5280;DHT22;2663;53.588;10.010;2023-04-06T04:03:24;4.70;99.90
5280;DHT22;2663;53.588;10.010;2023-04-06T04:05:54;4.60;99.90
5280;DHT22;2663;53.588;10.010;2023-04-06T04:08:21;4.60;99.90
5280;DHT22;2663;53.588;10.010;2023-04-06T04:10:48;4.50;99.90
5280;DHT22;2663;53.588;10.010;2023-04-06T04:13:15;4.60;99.90
5280;DHT22;2663;53.588;10.010;2023-04-06T04:15:41;4.50;99.90
5280;DHT22;2663;53.588;10.010;2023-04-06T04:18:08;4.30;99.90
5280;DHT22;2663;53.588;10.010;2023-04-06T04:20:35;2.90;99.90
5280;DHT22;2663;53.588;10.010;2023-04-06T04:23:01;4.10;99.90
5280;DHT22;2663;53.588;10.010;2023-04-06T04:25:28;4.20;99.90
5280;DHT22;2663;53.588;10.010;2023-04-06T04:27:55;4.30;99.90
5280;DHT22;2663;53.588;10.010;2023-04-06T04:30:21;4.30;99.90
5280;DHT22;2663;53.588;10.010;2023-04-06T04:32:48;4.20;99.90
5280;DHT22;2663;53.588;10.010;2023-04-06T04:35:15;4.30;99.90
5280;DHT22;2663;53.588;10.010;2023-04-06T04:37:42;4.20;99.90
5280;DHT22;2663;53.588;10.010;2023-04-06T04:40:09;4.20;99.90
5280;DHT22;2663;53.588;10.010;2023-04-06T04:42:36;4.20;99.90
5280;DHT22;2663;53.588;10.010;2023-04-06T04:45:02;4.40;99.90
5280;DHT22;2663;53.588;10.010;2023-04-06T04:47:29;4.20;99.90
5280;DHT22;2663;53.588;10.010;2023-04-06T04:49:56;4.20;99.90
5280;DHT22;2663;53.588;10.010;2023-04-06T04:52:22;4.10;99.90
5280;DHT22;2663;53.588;10.010;2023-04-06T04:54:49;4.10;99.90
5280;DHT22;2663;53.588;10.010;2023-04-06T04:57:15;3.90;99.90
5280;DHT22;2663;53.588;10.010;2023-04-06T04:59:43;4.00;99.90
5280;DHT22;2663;53.588;10.010;2023-04-06T05:02:09;4.20;99.90
5280;DHT22;2663;53.588;10.010;2023-04-06T05:04:36;4.10;99.90
5280;DHT22;2663;53.588;10.010;2023-04-06T05:07:07;4.10;99.90
5280;DHT22;2663;53.588;10.010;2023-04-06T05:09:33;4.00;99.90
5280;DHT22;2663;53.588;10.010;2023-04-06T05:12:00;4.10;99.90
5280;DHT22;2663;53.588;10.010;2023-04-06T05:14:28;4.10;99.90
5280;DHT22;2663;53.588;10.010;2023-04-06T05:16:54;4.20;99.90
5280;DHT22;2663;53.588;10.010;2023-04-06T05:19:21;4.20;99.90
5280;DHT22;2663;53.588;10.010;2023-04-06T05:21:48;4.20;99.90
5280;DHT22;2663;53.588;10.010;2023-04-06T05:24:15;4.30;99.90
5280;DHT22;2663;53.588;10.010;2023-04-06T05:26:41;4.20;99.90
5280;DHT22;2663;53.588;10.010;2023-04-06T05:29:08;5.90;99.90
5280;DHT22;2663;53.588;10.010;2023-04-06T05:31:35;4.30;99.90
5280;DHT22;2663;53.588;10.010;2023-04-06T05:34:02;4.30;99.90
5280;DHT22;2663;53.588;10.010;2023-04-06T05:36:29;4.20;99.90
5280;DHT22;2663;53.588;10.010;2023-04-06T05:38:57;4.20;99.90
5280;DHT22;2663;53.588;10.010;2023-04-06T05:41:24;4.20;99.90
5280;DHT22;2663;53.588;10.010;2023-04-06T05:43:51;4.10;99.90
5280;DHT22;2663;53.588;10.010;2023-04-06T05:46:18;4.30;99.90
5280;DHT22;2663;53.588;10.010;2023-04-06T05:48:45;4.20;99.90
5280;DHT22;2663;53.588;10.010;2023-04-06T05:51:11;4.40;99.90
5280;DHT22;2663;53.588;10.010;2023-04-06T05:53:38;4.20;99.90
5280;DHT22;2663;53.588;10.010;2023-04-06T05:56:05;4.30;99.90
5280;DHT22;2663;53.588;10.010;2023-04-06T05:58:31;4.50;99.90
5280;DHT22;2663;53.588;10.010;2023-04-06T06:01:00;4.50;99.90
5280;DHT22;2663;53.588;10.010;2023-04-06T06:03:27;6.20;99.90
5280;DHT22;2663;53.588;10.010;2023-04-06T06:05:59;5.90;99.90
5280;DHT22;2663;53.588;10.010;2023-04-06T06:08:27;5.50;99.90
5280;DHT22;2663;53.588;10.010;2023-04-06T06:10:53;5.20;99.90
5280;DHT22;2663;53.588;10.010;2023-04-06T06:13:20;5.70;99.90
5280;DHT22;2663;53.588;10.010;2023-04-06T06:15:47;4.90;99.90
5280;DHT22;2663;53.588;10.010;2023-04-06T06:18:13;4.90;99.90
5280;DHT22;2663;53.588;10.010;2023-04-06T06:20:40;4.90;99.90
5280;DHT22;2663;53.588;10.010;2023-04-06T06:23:07;5.00;99.90
5280;DHT22;2663;53.588;10.010;2023-04-06T06:25:33;5.00;99.90
5280;DHT22;2663;53.588;10.010;2023-04-06T06:28:00;5.00;99.90
5280;DHT22;2663;53.588;10.010;2023-04-06T06:30:27;5.00;99.90
5280;DHT22;2663;53.588;10.010;2023-04-06T06:32:54;5.20;99.90
5280;DHT22;2663;53.588;10.010;2023-04-06T06:35:21;5.20;99.90
5280;DHT22;2663;53.588;10.010;2023-04-06T06:37:47;5.30;99.90
5280;DHT22;2663;53.588;10.010;2023-04-06T06:40:14;5.40;99.90
5280;DHT22;2663;53.588;10.010;2023-04-06T06:42:42;5.50;99.90
5280;DHT22;2663;53.588;10.010;2023-04-06T06:45:09;5.60;99.90
5280;DHT22;2663;53.588;10.010;2023-04-06T06:47:36;5.60;99.90
5280;DHT22;2663;53.588;10.010;2023-04-06T06:50:03;5.70;99.90
5280;DHT22;2663;53.588;10.010;2023-04-06T06:52:30;5.70;99.90
5280;DHT22;2663;53.588;10.010;2023-04-06T06:54:56;5.80;99.90
5280;DHT22;2663;53.588;10.010;2023-04-06T06:57:23;5.80;99.90
5280;DHT22;2663;53.588;10.010;2023-04-06T06:59:50;5.90;99.90
5280;DHT22;2663;53.588;10.010;2023-04-06T07:02:16;6.10;99.90
5280;DHT22;2663;53.588;10.010;2023-04-06T07:04:43;6.20;99.90
5280;DHT22;2663;53.588;10.010;2023-04-06T07:07:10;6.30;99.90
5280;DHT22;2663;53.588;10.010;2023-04-06T07:09:36;6.40;99.90
5280;DHT22;2663;53.588;10.010;2023-04-06T07:12:03;6.60;99.90
5280;DHT22;2663;53.588;10.010;2023-04-06T07:14:30;6.70;99.90
5280;DHT22;2663;53.588;10.010;2023-04-06T07:16:56;6.80;99.90
5280;DHT22;2663;53.588;10.010;2023-04-06T07:19:23;6.90;99.90
5280;DHT22;2663;53.588;10.010;2023-04-06T07:21:50;7.00;99.90
5280;DHT22;2663;53.588;10.010;2023-04-06T07:24:16;7.10;99.90
5280;DHT22;2663;53.588;10.010;2023-04-06T07:26:43;7.20;99.90
5280;DHT22;2663;53.588;10.010;2023-04-06T07:29:10;7.30;99.60
5280;DHT22;2663;53.588;10.010;2023-04-06T07:31:36;7.40;99.60
5280;DHT22;2663;53.588;10.010;2023-04-06T07:34:03;7.60;99.40
5280;DHT22;2663;53.588;10.010;2023-04-06T07:36:30;7.60;98.90
5280;DHT22;2663;53.588;10.010;2023-04-06T07:38:57;7.60;98.50
5280;DHT22;2663;53.588;10.010;2023-04-06T07:41:23;7.80;98.20
5280;DHT22;2663;53.588;10.010;2023-04-06T07:43:51;7.80;98.00
5280;DHT22;2663;53.588;10.010;2023-04-06T07:46:17;7.90;97.90
5280;DHT22;2663;53.588;10.010;2023-04-06T07:48:44;8.10;97.70
5280;DHT22;2663;53.588;10.010;2023-04-06T07:51:11;8.20;97.40
5280;DHT22;2663;53.588;10.010;2023-04-06T07:53:40;8.20;97.10
5280;DHT22;2663;53.588;10.010;2023-04-06T07:56:07;8.30;97.10
5280;DHT22;2663;53.588;10.010;2023-04-06T07:58:34;8.30;96.40
5280;DHT22;2663;53.588;10.010;2023-04-06T08:01:01;8.30;96.00
5280;DHT22;2663;53.588;10.010;2023-04-06T08:03:28;8.40;95.80
5280;DHT22;2663;53.588;10.010;2023-04-06T08:05:55;8.40;95.20
5280;DHT22;2663;53.588;10.010;2023-04-06T08:08:21;8.50;95.20
5280;DHT22;2663;53.588;10.010;2023-04-06T08:10:49;8.70;95.00
5280;DHT22;2663;53.588;10.010;2023-04-06T08:13:15;8.80;95.10
5280;DHT22;2663;53.588;10.010;2023-04-06T08:15:42;8.90;94.70
5280;DHT22;2663;53.588;10.010;2023-04-06T08:18:09;8.90;94.10
5280;DHT22;2663;53.588;10.010;2023-04-06T08:20:36;9.00;93.90
5280;DHT22;2663;53.588;10.010;2023-04-06T08:23:02;9.00;93.50
5280;DHT22;2663;53.588;10.010;2023-04-06T08:25:29;9.20;93.50
5280;DHT22;2663;53.588;10.010;2023-04-06T08:27:56;9.10;93.40
5280;DHT22;2663;53.588;10.010;2023-04-06T08:30:22;9.00;93.50
5280;DHT22;2663;53.588;10.010;2023-04-06T08:32:49;9.10;93.30
5280;DHT22;2663;53.588;10.010;2023-04-06T08:35:16;9.20;93.20
5280;DHT22;2663;53.588;10.010;2023-04-06T08:37:43;9.20;93.20
5280;DHT22;2663;53.588;10.010;2023-04-06T08:40:11;9.40;93.00
5280;DHT22;2663;53.588;10.010;2023-04-06T08:42:40;9.50;92.50
5280;DHT22;2663;53.588;10.010;2023-04-06T08:45:10;9.60;92.40
5280;DHT22;2663;53.588;10.010;2023-04-06T08:47:37;9.70;92.30
5280;DHT22;2663;53.588;10.010;2023-04-06T08:50:04;9.80;91.60
5280;DHT22;2663;53.588;10.010;2023-04-06T08:52:32;9.90;92.00
5280;DHT22;2663;53.588;10.010;2023-04-06T08:55:00;10.00;90.40
5280;DHT22;2663;53.588;10.010;2023-04-06T08:57:27;10.00;90.20
5280;DHT22;2663;53.588;10.010;2023-04-06T08:59:54;10.00;90.00
5280;DHT22;2663;53.588;10.010;2023-04-06T09:02:22;10.00;89.40
5280;DHT22;2663;53.588;10.010;2023-04-06T09:04:53;10.10;89.80
5280;DHT22;2663;53.588;10.010;2023-04-06T09:07:21;10.20;88.20
5280;DHT22;2663;53.588;10.010;2023-04-06T09:09:47;10.20;87.60
5280;DHT22;2663;53.588;10.010;2023-04-06T09:12:28;10.20;86.60
5280;DHT22;2663;53.588;10.010;2023-04-06T09:14:56;10.30;86.00
5280;DHT22;2663;53.588;10.010;2023-04-06T09:17:28;10.30;86.10
5280;DHT22;2663;53.588;10.010;2023-04-06T09:19:56;10.40;85.30
5280;DHT22;2663;53.588;10.010;2023-04-06T09:22:23;10.50;84.90
5280;DHT22;2663;53.588;10.010;2023-04-06T09:24:53;10.70;83.90
5280;DHT22;2663;53.588;10.010;2023-04-06T09:27:40;10.70;84.20
5280;DHT22;2663;53.588;10.010;2023-04-06T09:30:09;10.70;84.20
5280;DHT22;2663;53.588;10.010;2023-04-06T09:32:53;10.80;82.90
5280;DHT22;2663;53.588;10.010;2023-04-06T09:35:20;10.80;82.40
5280;DHT22;2663;53.588;10.010;2023-04-06T09:37:51;10.80;80.00
5280;DHT22;2663;53.588;10.010;2023-04-06T09:40:18;10.80;80.80
5280;DHT22;2663;53.588;10.010;2023-04-06T09:42:47;10.80;82.20
5280;DHT22;2663;53.588;10.010;2023-04-06T09:45:14;10.90;81.40
5280;DHT22;2663;53.588;10.010;2023-04-06T09:47:43;10.90;82.60
5280;DHT22;2663;53.588;10.010;2023-04-06T09:50:14;11.00;82.80
5280;DHT22;2663;53.588;10.010;2023-04-06T09:52:48;11.40;84.10
5280;DHT22;2663;53.588;10.010;2023-04-06T09:55:31;11.50;82.90
5280;DHT22;2663;53.588;10.010;2023-04-06T09:58:06;11.60;83.10
5280;DHT22;2663;53.588;10.010;2023-04-06T10:00:43;11.50;82.50
5280;DHT22;2663;53.588;10.010;2023-04-06T10:03:23;11.40;81.70
5280;DHT22;2663;53.588;10.010;2023-04-06T10:05:59;11.50;81.60
5280;DHT22;2663;53.588;10.010;2023-04-06T10:08:28;11.60;80.00
5280;DHT22;2663;53.588;10.010;2023-04-06T10:10:59;11.60;79.00
5280;DHT22;2663;53.588;10.010;2023-04-06T10:13:27;11.70;78.70
5280;DHT22;2663;53.588;10.010;2023-04-06T10:15:54;11.70;78.50
5280;DHT22;2663;53.588;10.010;2023-04-06T10:18:21;11.70;76.10
5280;DHT22;2663;53.588;10.010;2023-04-06T10:20:49;11.70;76.00
5280;DHT22;2663;53.588;10.010;2023-04-06T10:23:29;11.60;76.20
5280;DHT22;2663;53.588;10.010;2023-04-06T10:25:59;11.60;76.20
5280;DHT22;2663;53.588;10.010;2023-04-06T10:28:30;11.70;75.60
5280;DHT22;2663;53.588;10.010;2023-04-06T10:30:58;11.60;75.30
5280;DHT22;2663;53.588;10.010;2023-04-06T10:33:26;11.70;75.80
5280;DHT22;2663;53.588;10.010;2023-04-06T10:35:53;11.80;74.60
5280;DHT22;2663;53.588;10.010;2023-04-06T10:38:33;11.90;75.40
5280;DHT22;2663;53.588;10.010;2023-04-06T10:41:08;12.00;74.60
5280;DHT22;2663;53.588;10.010;2023-04-06T10:43:37;12.10;75.50
5280;DHT22;2663;53.588;10.010;2023-04-06T10:46:05;13.00;75.20
5280;DHT22;2663;53.588;10.010;2023-04-06T10:48:40;12.20;75.00
5280;DHT22;2663;53.588;10.010;2023-04-06T10:51:15;12.20;73.30
5280;DHT22;2663;53.588;10.010;2023-04-06T10:53:44;12.10;73.50
5280;DHT22;2663;53.588;10.010;2023-04-06T10:56:13;12.20;72.60
5280;DHT22;2663;53.588;10.010;2023-04-06T10:58:51;12.10;73.30
5280;DHT22;2663;53.588;10.010;2023-04-06T11:01:20;12.10;74.10
5280;DHT22;2663;53.588;10.010;2023-04-06T11:03:52;12.20;73.40
5280;DHT22;2663;53.588;10.010;2023-04-06T11:06:27;12.30;74.10
5280;DHT22;2663;53.588;10.010;2023-04-06T11:08:55;12.40;73.20
5280;DHT22;2663;53.588;10.010;2023-04-06T11:11:24;12.40;72.90
5280;DHT22;2663;53.588;10.010;2023-04-06T11:13:57;12.40;72.50
5280;DHT22;2663;53.588;10.010;2023-04-06T11:16:30;12.50;72.90
5280;DHT22;2663;53.588;10.010;2023-04-06T11:19:03;12.70;73.70
5280;DHT22;2663;53.588;10.010;2023-04-06T11:21:47;12.70;72.30
5280;DHT22;2663;53.588;10.010;2023-04-06T11:24:22;12.60;73.10
5280;DHT22;2663;53.588;10.010;2023-04-06T11:26:57;12.70;72.60
5280;DHT22;2663;53.588;10.010;2023-04-06T11:29:26;12.80;72.20
5280;DHT22;2663;53.588;10.010;2023-04-06T11:31:58;13.30;88.80
5280;DHT22;2663;53.588;10.010;2023-04-06T11:34:27;13.20;76.10
5280;DHT22;2663;53.588;10.010;2023-04-06T11:37:00;13.10;75.70
5280;DHT22;2663;53.588;10.010;2023-04-06T11:39:29;12.60;74.60
5280;DHT22;2663;53.588;10.010;2023-04-06T11:42:00;12.70;73.60
5280;DHT22;2663;53.588;10.010;2023-04-06T11:44:36;12.70;75.30
5280;DHT22;2663;53.588;10.010;2023-04-06T11:47:05;12.50;74.60
5280;DHT22;2663;53.588;10.010;2023-04-06T11:49:32;12.40;74.80
5280;DHT22;2663;53.588;10.010;2023-04-06T11:52:01;12.40;76.60
5280;DHT22;2663;53.588;10.010;2023-04-06T11:54:36;12.30;74.50
5280;DHT22;2663;53.588;10.010;2023-04-06T11:57:04;12.30;75.70
5280;DHT22;2663;53.588;10.010;2023-04-06T11:59:32;12.40;74.60
5280;DHT22;2663;53.588;10.010;2023-04-06T12:01:59;12.30;74.60
5280;DHT22;2663;53.588;10.010;2023-04-06T12:04:26;12.30;74.90
5280;DHT22;2663;53.588;10.010;2023-04-06T12:06:53;12.30;74.40
5280;DHT22;2663;53.588;10.010;2023-04-06T12:09:20;12.30;74.90
5280;DHT22;2663;53.588;10.010;2023-04-06T12:11:47;12.40;76.50
5280;DHT22;2663;53.588;10.010;2023-04-06T12:14:13;12.50;75.90
5280;DHT22;2663;53.588;10.010;2023-04-06T12:16:40;12.60;73.80
5280;DHT22;2663;53.588;10.010;2023-04-06T12:19:07;12.70;75.40
5280;DHT22;2663;53.588;10.010;2023-04-06T12:21:35;12.70;74.80
5280;DHT22;2663;53.588;10.010;2023-04-06T12:24:04;12.70;74.10
5280;DHT22;2663;53.588;10.010;2023-04-06T12:26:31;12.70;73.20
5280;DHT22;2663;53.588;10.010;2023-04-06T12:28:59;12.70;73.30
5280;DHT22;2663;53.588;10.010;2023-04-06T12:31:36;12.70;72.00
5280;DHT22;2663;53.588;10.010;2023-04-06T12:34:03;12.70;73.80
5280;DHT22;2663;53.588;10.010;2023-04-06T12:36:30;12.70;73.20
5280;DHT22;2663;53.588;10.010;2023-04-06T12:38:58;12.90;73.80
5280;DHT22;2663;53.588;10.010;2023-04-06T12:41:24;13.00;73.60
5280;DHT22;2663;53.588;10.010;2023-04-06T12:43:51;13.10;73.40
5280;DHT22;2663;53.588;10.010;2023-04-06T12:46:18;13.20;73.20
5280;DHT22;2663;53.588;10.010;2023-04-06T12:48:45;13.30;73.00
5280;DHT22;2663;53.588;10.010;2023-04-06T12:51:12;13.30;73.10
5280;DHT22;2663;53.588;10.010;2023-04-06T12:53:38;13.60;84.70
5280;DHT22;2663;53.588;10.010;2023-04-06T12:56:19;13.80;73.80
5280;DHT22;2663;53.588;10.010;2023-04-06T12:58:47;13.90;71.80
5280;DHT22;2663;53.588;10.010;2023-04-06T13:01:14;13.90;69.90
5280;DHT22;2663;53.588;10.010;2023-04-06T13:03:40;13.90;73.00
5280;DHT22;2663;53.588;10.010;2023-04-06T13:06:08;13.90;71.30
5280;DHT22;2663;53.588;10.010;2023-04-06T13:08:35;13.90;70.70
5280;DHT22;2663;53.588;10.010;2023-04-06T13:11:06;14.00;70.40
5280;DHT22;2663;53.588;10.010;2023-04-06T13:13:36;14.00;70.80
5280;DHT22;2663;53.588;10.010;2023-04-06T13:16:05;14.10;71.50
5280;DHT22;2663;53.588;10.010;2023-04-06T13:18:33;14.10;70.80
5280;DHT22;2663;53.588;10.010;2023-04-06T13:21:00;14.20;69.60
5280;DHT22;2663;53.588;10.010;2023-04-06T13:23:27;14.30;71.10
5280;DHT22;2663;53.588;10.010;2023-04-06T13:26:06;14.50;70.30
5280;DHT22;2663;53.588;10.010;2023-04-06T13:28:35;14.50;69.30
5280;DHT22;2663;53.588;10.010;2023-04-06T13:31:04;14.50;69.20
5280;DHT22;2663;53.588;10.010;2023-04-06T13:33:31;14.70;69.40
5280;DHT22;2663;53.588;10.010;2023-04-06T13:35:58;14.70;67.80
5280;DHT22;2663;53.588;10.010;2023-04-06T13:38:25;14.80;68.00
5280;DHT22;2663;53.588;10.010;2023-04-06T13:40:52;14.80;68.10
5280;DHT22;2663;53.588;10.010;2023-04-06T13:43:19;14.80;67.60
5280;DHT22;2663;53.588;10.010;2023-04-06T13:45:54;14.80;68.90
5280;DHT22;2663;53.588;10.010;2023-04-06T13:48:26;14.80;69.10
5280;DHT22;2663;53.588;10.010;2023-04-06T13:50:52;14.90;68.90
5280;DHT22;2663;53.588;10.010;2023-04-06T13:53:19;14.90;67.20
5280;DHT22;2663;53.588;10.010;2023-04-06T13:55:53;15.00;72.30
5280;DHT22;2663;53.588;10.010;2023-04-06T13:58:20;15.20;73.80
5280;DHT22;2663;53.588;10.010;2023-04-06T14:00:47;15.40;66.10
5280;DHT22;2663;53.588;10.010;2023-04-06T14:03:14;15.40;68.10
5280;DHT22;2663;53.588;10.010;2023-04-06T14:05:41;15.50;68.20
5280;DHT22;2663;53.588;10.010;2023-04-06T14:08:08;15.60;70.20
5280;DHT22;2663;53.588;10.010;2023-04-06T14:10:39;15.80;67.20
5280;DHT22;2663;53.588;10.010;2023-04-06T14:13:06;16.00;68.50
5280;DHT22;2663;53.588;10.010;2023-04-06T14:15:34;16.10;66.00
5280;DHT22;2663;53.588;10.010;2023-04-06T14:18:01;16.00;66.30
5280;DHT22;2663;53.588;10.010;2023-04-06T14:20:31;16.10;66.60
5280;DHT22;2663;53.588;10.010;2023-04-06T14:23:02;16.20;67.10
5280;DHT22;2663;53.588;10.010;2023-04-06T14:25:29;16.40;68.10
5280;DHT22;2663;53.588;10.010;2023-04-06T14:28:01;16.60;68.60
5280;DHT22;2663;53.588;10.010;2023-04-06T14:30:30;16.70;64.70
5280;DHT22;2663;53.588;10.010;2023-04-06T14:32:57;16.40;64.70
5280;DHT22;2663;53.588;10.010;2023-04-06T14:35:24;16.40;66.10
5280;DHT22;2663;53.588;10.010;2023-04-06T14:37:51;16.50;64.30
5280;DHT22;2663;53.588;10.010;2023-04-06T14:40:18;16.60;64.30
5280;DHT22;2663;53.588;10.010;2023-04-06T14:42:45;16.70;65.70
5280;DHT22;2663;53.588;10.010;2023-04-06T14:45:11;16.90;65.40
5280;DHT22;2663;53.588;10.010;2023-04-06T14:47:38;17.10;63.10
5280;DHT22;2663;53.588;10.010;2023-04-06T14:50:05;16.70;62.30
5280;DHT22;2663;53.588;10.010;2023-04-06T14:52:32;16.60;64.30
5280;DHT22;2663;53.588;10.010;2023-04-06T14:54:59;16.70;63.90
5280;DHT22;2663;53.588;10.010;2023-04-06T14:57:25;16.70;64.10
5280;DHT22;2663;53.588;10.010;2023-04-06T14:59:55;16.80;64.80
5280;DHT22;2663;53.588;10.010;2023-04-06T15:02:22;16.90;63.90
5280;DHT22;2663;53.588;10.010;2023-04-06T15:04:49;16.80;61.50
5280;DHT22;2663;53.588;10.010;2023-04-06T15:07:17;16.40;65.40
5280;DHT22;2663;53.588;10.010;2023-04-06T15:09:43;16.50;63.30
5280;DHT22;2663;53.588;10.010;2023-04-06T15:12:10;16.60;65.60
5280;DHT22;2663;53.588;10.010;2023-04-06T15:14:36;16.60;63.80
5280;DHT22;2663;53.588;10.010;2023-04-06T15:17:03;16.40;64.00
5280;DHT22;2663;53.588;10.010;2023-04-06T15:19:30;16.30;65.40
5280;DHT22;2663;53.588;10.010;2023-04-06T15:21:56;16.20;62.70
5280;DHT22;2663;53.588;10.010;2023-04-06T15:24:26;16.20;64.00
5280;DHT22;2663;53.588;10.010;2023-04-06T15:26:52;15.90;62.20
5280;DHT22;2663;53.588;10.010;2023-04-06T15:29:19;15.70;64.40
5280;DHT22;2663;53.588;10.010;2023-04-06T15:31:46;15.70;65.30
5280;DHT22;2663;53.588;10.010;2023-04-06T15:34:13;15.70;66.10
5280;DHT22;2663;53.588;10.010;2023-04-06T15:36:40;15.90;64.80
5280;DHT22;2663;53.588;10.010;2023-04-06T15:39:09;15.70;66.10
5280;DHT22;2663;53.588;10.010;2023-04-06T15:41:35;15.60;67.00
5280;DHT22;2663;53.588;10.010;2023-04-06T15:44:02;15.60;66.80
5280;DHT22;2663;53.588;10.010;2023-04-06T15:46:30;15.40;65.90
5280;DHT22;2663;53.588;10.010;2023-04-06T15:48:57;15.30;67.30
5280;DHT22;2663;53.588;10.010;2023-04-06T15:51:23;15.80;68.50
5280;DHT22;2663;53.588;10.010;2023-04-06T15:53:51;16.60;65.40
5280;DHT22;2663;53.588;10.010;2023-04-06T15:56:18;16.70;63.50
5280;DHT22;2663;53.588;10.010;2023-04-06T15:58:44;16.40;64.10